createdAt,value
2023-04-29T00:01:35.225Z,100483.31
2023-04-29T00:04:01.811Z,100661.97
2023-04-29T00:06:28.529Z,100647.75
2023-04-29T00:08:54.978Z,100630.63
2023-04-29T00:11:21.473Z,100610.34
2023-04-29T00:13:47.851Z,100638.22
2023-04-29T00:16:14.796Z,100641.75
2023-04-29T00:18:41.197Z,100583.19
2023-04-29T00:21:07.526Z,100636.44
2023-04-29T00:23:34.280Z,100689.03
2023-04-29T00:26:00.826Z,100618.44
2023-04-29T00:28:27.209Z,100635.59
2023-04-29T00:30:53.802Z,100666.63
2023-04-29T00:33:20.342Z,100649.03
2023-04-29T00:35:47.022Z,100686.47
2023-04-29T00:38:13.347Z,100666.81
2023-04-29T00:40:40.019Z,100620.81
2023-04-29T00:43:06.374Z,100657.53
2023-04-29T00:45:33.066Z,100699.31
2023-04-29T00:47:59.608Z,100694.63
2023-04-29T00:50:26.145Z,100698.53
2023-04-29T00:52:52.908Z,100687.25
2023-04-29T00:55:19.502Z,100613.63
2023-04-29T00:57:48.275Z,100574.72
2023-04-29T01:00:16.170Z,100673.88
2023-04-29T01:02:43.713Z,100672.78
2023-04-29T01:05:10.487Z,100696.53
2023-04-29T01:07:52.679Z,100709.72
2023-04-29T01:10:44.050Z,100727.03
2023-04-29T01:13:29.317Z,100730.06
2023-04-29T01:16:04.471Z,100729.28
2023-04-29T01:18:39.425Z,100676.31
2023-04-29T01:21:05.847Z,100702.31
2023-04-29T01:23:32.686Z,100706.63
2023-04-29T01:25:59.594Z,100709.00
2023-04-29T01:28:47.674Z,100741.59
2023-04-29T01:31:41.679Z,100741.25
2023-04-29T01:34:09.914Z,100724.38
2023-04-29T01:37:04.836Z,100737.97
2023-04-29T01:39:41.616Z,100737.84
2023-04-29T01:42:29.376Z,100741.28
2023-04-29T01:45:00.677Z,100672.16
2023-04-29T01:47:27.290Z,100725.53
2023-04-29T01:49:53.795Z,100708.50
2023-04-29T01:52:20.372Z,100716.41
2023-04-29T01:54:47.121Z,100741.03
2023-04-29T01:57:13.507Z,100738.72
2023-04-29T01:59:40.096Z,100756.53
2023-04-29T02:02:06.460Z,100670.84
2023-04-29T02:04:34.431Z,100642.69
2023-04-29T02:07:01.566Z,100742.34
2023-04-29T02:09:27.928Z,100731.34
2023-04-29T02:11:54.249Z,100725.19
2023-04-29T02:14:21.034Z,100756.44
2023-04-29T02:16:47.485Z,100750.38
2023-04-29T02:19:13.869Z,100748.97
2023-04-29T02:21:40.254Z,100728.34
2023-04-29T02:24:07.073Z,100761.63
2023-04-29T02:26:34.332Z,100606.84
2023-04-29T02:29:00.747Z,100753.22
2023-04-29T02:31:28.970Z,100696.50
2023-04-29T02:33:55.632Z,100752.50
2023-04-29T02:36:22.041Z,100789.38
2023-04-29T02:38:50.669Z,100784.31
2023-04-29T02:41:18.091Z,100780.81
2023-04-29T02:43:44.820Z,100798.69
2023-04-29T02:46:12.383Z,100803.72
2023-04-29T02:48:39.197Z,100627.75
2023-04-29T02:51:05.612Z,100793.16
2023-04-29T02:53:32.690Z,100816.13
2023-04-29T02:55:59.212Z,100787.66
2023-04-29T02:58:25.980Z,100774.66
2023-04-29T03:00:52.323Z,100803.78
2023-04-29T03:03:19.441Z,100810.59
2023-04-29T03:05:45.964Z,100732.13
2023-04-29T03:08:12.376Z,100800.88
2023-04-29T03:10:41.420Z,100792.28
2023-04-29T03:13:08.226Z,100722.59
2023-04-29T03:15:34.745Z,100839.19
2023-04-29T03:18:02.007Z,100830.00
2023-04-29T03:20:29.510Z,100740.34
2023-04-29T03:22:55.976Z,100816.91
2023-04-29T03:25:22.903Z,100654.28
2023-04-29T03:27:49.288Z,100754.41
2023-04-29T03:30:15.834Z,100822.41
2023-04-29T03:32:42.273Z,100736.97
2023-04-29T03:35:08.856Z,100851.34
2023-04-29T03:37:35.450Z,100801.16
2023-04-29T03:40:01.799Z,100831.09
2023-04-29T03:42:28.173Z,100790.31
2023-04-29T03:44:54.881Z,100807.91
2023-04-29T03:47:21.251Z,100707.97
2023-04-29T03:49:47.602Z,100851.41
2023-04-29T03:52:14.039Z,100834.66
2023-04-29T03:54:40.804Z,100839.94
2023-04-29T03:57:07.408Z,100849.56
2023-04-29T03:59:33.755Z,100739.31
2023-04-29T04:02:00.173Z,100859.66
2023-04-29T04:04:26.853Z,100870.81
2023-04-29T04:06:53.362Z,100862.25
2023-04-29T04:09:19.713Z,100836.31
2023-04-29T04:11:46.536Z,100849.22
2023-04-29T04:14:12.967Z,100849.41
2023-04-29T04:16:39.372Z,100745.69
2023-04-29T04:19:06.360Z,100879.53
2023-04-29T04:21:32.745Z,100795.25
2023-04-29T04:23:59.285Z,100867.44
2023-04-29T04:26:25.885Z,100867.22
2023-04-29T04:28:52.236Z,100886.25
2023-04-29T04:31:18.638Z,100877.75
2023-04-29T04:33:45.020Z,100814.88
2023-04-29T04:36:11.381Z,100869.16
2023-04-29T04:38:37.732Z,100836.38
2023-04-29T04:41:07.351Z,100887.00
2023-04-29T04:43:33.934Z,100903.19
2023-04-29T04:46:00.314Z,100876.88
2023-04-29T04:48:26.918Z,100872.59
2023-04-29T04:50:53.289Z,100849.06
2023-04-29T04:53:19.613Z,100873.19
2023-04-29T04:55:46.744Z,100897.38
2023-04-29T04:58:13.067Z,100812.75
2023-04-29T05:00:44.246Z,100912.06
2023-04-29T05:03:10.810Z,100808.09
2023-04-29T05:05:37.201Z,100916.78
2023-04-29T05:08:03.711Z,100899.47
2023-04-29T05:10:30.084Z,100806.31
2023-04-29T05:12:56.436Z,100817.13
2023-04-29T05:15:22.933Z,100814.53
2023-04-29T05:17:49.336Z,100903.53
2023-04-29T05:20:15.688Z,100917.19
2023-04-29T05:22:42.192Z,100855.16
2023-04-29T05:25:08.974Z,100933.56
2023-04-29T05:27:35.341Z,100894.84
2023-04-29T05:30:02.193Z,100946.75
2023-04-29T05:32:28.530Z,100947.03
2023-04-29T05:34:54.988Z,100873.53
2023-04-29T05:37:21.392Z,100857.06
2023-04-29T05:39:47.751Z,100938.97
2023-04-29T05:42:14.143Z,100874.09
2023-04-29T05:44:40.471Z,100975.00
2023-04-29T05:47:06.867Z,100973.66
2023-04-29T05:49:33.289Z,100940.63
2023-04-29T05:52:03.988Z,100874.13
2023-04-29T05:54:30.283Z,100978.59
2023-04-29T05:56:56.832Z,100890.53
2023-04-29T05:59:23.258Z,100880.16
2023-04-29T06:01:49.595Z,100967.16
2023-04-29T06:04:16.155Z,100972.72
2023-04-29T06:06:43.592Z,100966.63
2023-04-29T06:09:19.868Z,100989.16
2023-04-29T06:11:53.217Z,100955.31
2023-04-29T06:14:19.646Z,100895.94
2023-04-29T06:16:46.074Z,100863.13
2023-04-29T06:19:15.746Z,100918.13
2023-04-29T06:21:42.194Z,100941.50
2023-04-29T06:24:08.584Z,101016.84
2023-04-29T06:26:34.936Z,101023.81
2023-04-29T06:29:01.329Z,100990.84
2023-04-29T06:31:28.300Z,100984.94
2023-04-29T06:33:54.971Z,101018.47
2023-04-29T06:36:21.342Z,101034.63
2023-04-29T06:38:47.692Z,101010.31
2023-04-29T06:41:14.034Z,101011.97
2023-04-29T06:43:43.003Z,100921.53
2023-04-29T06:46:09.891Z,101032.78
2023-04-29T06:48:36.761Z,101062.00
2023-04-29T06:51:03.134Z,100966.69
2023-04-29T06:53:29.488Z,101060.78
2023-04-29T06:55:55.927Z,100999.69
2023-04-29T06:58:22.451Z,101051.16
2023-04-29T07:00:50.551Z,101061.94
2023-04-29T07:03:18.922Z,101056.94
2023-04-29T07:05:45.898Z,101078.97
2023-04-29T07:08:13.829Z,101061.66
2023-04-29T07:10:41.630Z,101062.53
2023-04-29T07:13:07.994Z,101092.91
2023-04-29T07:15:35.835Z,101077.25
2023-04-29T07:18:05.882Z,101093.91
2023-04-29T07:20:32.444Z,101065.44
2023-04-29T07:22:59.298Z,101072.44
2023-04-29T07:25:27.418Z,101080.22
2023-04-29T07:27:54.165Z,101017.09
2023-04-29T07:30:20.616Z,100986.41
2023-04-29T07:32:47.157Z,100994.34
2023-04-29T07:35:13.624Z,101045.25
2023-04-29T07:37:41.085Z,101119.47
2023-04-29T07:40:09.560Z,101050.94
2023-04-29T07:42:37.283Z,101008.59
2023-04-29T07:45:03.888Z,101072.44
2023-04-29T07:47:30.339Z,101062.53
2023-04-29T07:49:57.280Z,101109.25
2023-04-29T07:52:23.623Z,101092.16
2023-04-29T07:54:50.101Z,101113.13
2023-04-29T07:57:16.561Z,101126.41
2023-04-29T07:59:42.886Z,101136.25
2023-04-29T08:02:09.206Z,101110.69
2023-04-29T08:04:39.737Z,101127.25
2023-04-29T08:07:06.389Z,101113.81
2023-04-29T08:09:32.781Z,101096.81
2023-04-29T08:11:59.125Z,101095.53
2023-04-29T08:14:25.553Z,101108.75
2023-04-29T08:16:51.909Z,101112.78
2023-04-29T08:19:18.220Z,101116.00
2023-04-29T08:21:44.721Z,101128.34
2023-04-29T08:24:11.149Z,101027.16
2023-04-29T08:26:37.530Z,101051.22
2023-04-29T08:29:03.872Z,101098.75
2023-04-29T08:31:30.623Z,101133.72
2023-04-29T08:33:58.646Z,101135.63
2023-04-29T08:36:25.659Z,101092.78
2023-04-29T08:38:53.131Z,101109.41
2023-04-29T08:41:19.596Z,101113.84
2023-04-29T08:43:46.027Z,101135.78
2023-04-29T08:46:13.030Z,101128.41
2023-04-29T08:48:44.963Z,101138.66
2023-04-29T08:51:13.386Z,101118.59
2023-04-29T08:53:39.784Z,101093.50
2023-04-29T08:56:13.367Z,101179.94
2023-04-29T08:58:42.344Z,101183.59
2023-04-29T09:01:10.498Z,101159.78
2023-04-29T09:04:17.051Z,101183.81
2023-04-29T09:06:43.907Z,101156.97
2023-04-29T09:09:11.833Z,101124.00
2023-04-29T09:11:38.327Z,101125.06
2023-04-29T09:14:04.652Z,101167.69
2023-04-29T09:16:31.234Z,101168.38
2023-04-29T09:18:57.800Z,101166.03
2023-04-29T09:21:29.706Z,101066.47
2023-04-29T09:23:58.237Z,101192.72
2023-04-29T09:26:25.274Z,101072.06
2023-04-29T09:29:16.128Z,101195.66
2023-04-29T09:31:42.706Z,101120.16
2023-04-29T09:34:09.929Z,101199.59
2023-04-29T09:36:44.826Z,101167.09
2023-04-29T09:39:13.582Z,101215.31
2023-04-29T09:41:52.205Z,101220.91
2023-04-29T09:44:32.221Z,101180.94
2023-04-29T09:47:08.290Z,101179.44
2023-04-29T09:49:37.215Z,101215.78
2023-04-29T09:52:05.734Z,101233.06
2023-04-29T09:54:34.578Z,101224.38
2023-04-29T09:57:02.518Z,101233.38
2023-04-29T09:59:29.574Z,101226.16
2023-04-29T10:01:58.475Z,101209.56
2023-04-29T10:04:27.371Z,101240.69
2023-04-29T10:06:56.097Z,101243.97
2023-04-29T10:09:23.732Z,101172.13
2023-04-29T10:11:54.103Z,101239.28
2023-04-29T10:14:27.335Z,101246.66
2023-04-29T10:17:00.042Z,101243.41
2023-04-29T10:19:47.696Z,101139.97
2023-04-29T10:22:22.593Z,101242.22
2023-04-29T10:24:49.615Z,100995.88
2023-04-29T10:27:20.867Z,101115.47
2023-04-29T10:29:49.322Z,101149.97
2023-04-29T10:32:17.296Z,101069.44
2023-04-29T10:34:44.198Z,101216.31
2023-04-29T10:37:16.235Z,101214.00
2023-04-29T10:39:50.828Z,101255.91
2023-04-29T10:42:27.947Z,101227.25
2023-04-29T10:45:31.572Z,101257.25
2023-04-29T10:48:08.398Z,101261.78
2023-04-29T10:50:40.280Z,101263.59
2023-04-29T10:53:06.633Z,101139.22
2023-04-29T10:55:38.496Z,101267.72
2023-04-29T10:58:05.918Z,101235.88
2023-04-29T11:00:33.924Z,101254.69
2023-04-29T11:03:02.711Z,101178.47
2023-04-29T11:05:37.057Z,101264.72
2023-04-29T11:08:16.360Z,101245.81
2023-04-29T11:10:43.924Z,101263.50
2023-04-29T11:13:29.332Z,101270.16
2023-04-29T11:16:09.470Z,101243.59
2023-04-29T11:18:37.535Z,101266.72
2023-04-29T11:21:06.967Z,101269.66
2023-04-29T11:23:37.398Z,101254.91
2023-04-29T11:26:04.536Z,101276.09
2023-04-29T11:28:32.056Z,101215.03
2023-04-29T11:30:59.274Z,101254.00
2023-04-29T11:33:29.548Z,101245.72
2023-04-29T11:35:56.395Z,101273.69
2023-04-29T11:38:26.581Z,101267.88
2023-04-29T11:40:55.620Z,101253.88
2023-04-29T11:43:23.632Z,101257.66
2023-04-29T11:45:51.512Z,101267.38
2023-04-29T11:48:26.367Z,101241.88
2023-04-29T11:50:57.726Z,101225.72
2023-04-29T11:53:25.825Z,101250.56
2023-04-29T11:55:55.687Z,101262.31
2023-04-29T11:58:23.274Z,101280.00
2023-04-29T12:00:50.581Z,101279.03
2023-04-29T12:03:19.276Z,101278.91
2023-04-29T12:05:53.040Z,101277.84
2023-04-29T12:08:23.570Z,101270.31
2023-04-29T12:10:50.710Z,101286.16
2023-04-29T12:13:18.263Z,101228.31
2023-04-29T12:15:49.012Z,101285.66
2023-04-29T12:18:17.886Z,101281.47
2023-04-29T12:20:45.068Z,101253.69
2023-04-29T12:23:15.921Z,101224.66
2023-04-29T12:25:42.609Z,101219.38
2023-04-29T12:28:13.118Z,101279.19
2023-04-29T12:30:39.533Z,101185.69
2023-04-29T12:33:09.625Z,101202.94
2023-04-29T12:35:37.136Z,101265.50
2023-04-29T12:38:03.758Z,101197.97
2023-04-29T12:40:30.455Z,101247.53
2023-04-29T12:42:56.976Z,101169.81
2023-04-29T12:45:31.021Z,101226.72
2023-04-29T12:47:58.882Z,101233.72
2023-04-29T12:50:52.271Z,101275.31
2023-04-29T12:53:18.954Z,101256.84
2023-04-29T12:55:47.535Z,101168.94
2023-04-29T12:58:13.986Z,101160.53
2023-04-29T13:00:40.677Z,101186.00
2023-04-29T13:03:07.203Z,101097.97
2023-04-29T13:05:33.977Z,101272.06
2023-04-29T13:08:00.340Z,101194.50
2023-04-29T13:10:28.407Z,101171.50
2023-04-29T13:12:55.251Z,101178.69
2023-04-29T13:15:21.593Z,101171.22
2023-04-29T13:17:47.962Z,101213.53
2023-04-29T13:20:15.279Z,101235.38
2023-04-29T13:22:43.568Z,101175.34
2023-04-29T13:25:12.338Z,101136.84
2023-04-29T13:27:39.307Z,101132.06
2023-04-29T13:30:07.287Z,101259.34
2023-04-29T13:32:43.732Z,101167.41
2023-04-29T13:35:13.129Z,101228.06
2023-04-29T13:37:40.893Z,101227.66
2023-04-29T13:40:15.814Z,101198.97
2023-04-29T13:42:50.069Z,101090.16
2023-04-29T13:45:19.571Z,101248.47
2023-04-29T13:48:06.712Z,101276.84
2023-04-29T13:53:35.508Z,101277.84
2023-04-29T14:01:11.293Z,101107.75
2023-04-29T14:03:35.779Z,101235.44
2023-04-29T14:06:02.693Z,101262.50
2023-04-29T14:08:29.035Z,101250.44
2023-04-29T14:10:55.383Z,101150.75
2023-04-29T14:13:22.104Z,101160.97
2023-04-29T14:15:48.592Z,101083.00
2023-04-29T14:18:15.004Z,101191.50
2023-04-29T14:20:41.383Z,101267.59
2023-04-29T14:23:07.802Z,101301.47
2023-04-29T14:25:34.223Z,101184.84
2023-04-29T14:28:00.598Z,101294.84
2023-04-29T14:30:26.994Z,101286.59
2023-04-29T14:32:53.498Z,101192.84
2023-04-29T14:35:20.055Z,101300.94
2023-04-29T14:37:46.425Z,101237.13
2023-04-29T14:40:13.009Z,101170.03
2023-04-29T14:42:39.427Z,101218.13
2023-04-29T14:45:06.873Z,101273.84
2023-04-29T14:47:34.697Z,101279.59
2023-04-29T14:50:01.747Z,101305.81
2023-04-29T14:52:28.137Z,101285.41
2023-04-29T14:54:54.907Z,101212.44
2023-04-29T14:57:21.567Z,101307.41
2023-04-29T14:59:47.886Z,101290.31
2023-04-29T15:02:14.327Z,101242.25
2023-04-29T15:04:45.434Z,101317.66
2023-04-29T15:07:13.656Z,101300.16
2023-04-29T15:09:40.340Z,101323.75
2023-04-29T15:12:07.001Z,101229.69
2023-04-29T15:14:33.991Z,101329.59
2023-04-29T15:17:00.319Z,101339.84
2023-04-29T15:19:26.900Z,101287.63
2023-04-29T15:21:53.307Z,101234.53
2023-04-29T15:24:22.073Z,101225.56
2023-04-29T15:26:48.469Z,101252.97
2023-04-29T15:29:14.834Z,101240.13
2023-04-29T15:31:41.214Z,101329.09
2023-04-29T15:34:07.562Z,101328.31
2023-04-29T15:36:34.569Z,101310.97
2023-04-29T15:39:00.879Z,101315.47
2023-04-29T15:41:27.537Z,101313.75
2023-04-29T15:43:56.170Z,101338.13
2023-04-29T15:46:23.107Z,101333.00
2023-04-29T15:48:49.656Z,101326.28
2023-04-29T15:51:16.077Z,101326.28
2023-04-29T15:53:43.749Z,101319.59
2023-04-29T15:56:11.641Z,101341.78
2023-04-29T15:58:38.002Z,101263.44
2023-04-29T16:01:04.999Z,101345.66
2023-04-29T16:03:31.518Z,101332.47
2023-04-29T16:05:58.244Z,101308.22
2023-04-29T16:08:25.019Z,101315.28
2023-04-29T16:10:51.458Z,101300.88
2023-04-29T16:13:17.878Z,101347.28
2023-04-29T16:15:44.460Z,101324.41
2023-04-29T16:18:11.076Z,101335.75
2023-04-29T16:20:37.461Z,101261.31
2023-04-29T16:23:03.793Z,101338.72
2023-04-29T16:25:30.361Z,101274.06
2023-04-29T16:27:57.698Z,101291.09
2023-04-29T16:30:24.247Z,101335.59
2023-04-29T16:32:51.803Z,101274.16
2023-04-29T16:35:18.334Z,101267.06
2023-04-29T16:37:44.671Z,101335.31
2023-04-29T16:40:11.543Z,101322.13
2023-04-29T16:42:37.937Z,101333.88
2023-04-29T16:45:04.641Z,101334.00
2023-04-29T16:47:31.236Z,101333.50
2023-04-29T16:49:57.637Z,101315.34
2023-04-29T16:52:24.080Z,101311.22
2023-04-29T16:54:50.503Z,101327.22
2023-04-29T16:57:16.848Z,101265.31
2023-04-29T16:59:43.187Z,101320.38
2023-04-29T17:02:09.588Z,101253.03
2023-04-29T17:04:36.109Z,101333.31
2023-04-29T17:07:03.759Z,101256.53
2023-04-29T17:09:31.089Z,101359.66
2023-04-29T17:11:57.998Z,101309.13
2023-04-29T17:14:24.457Z,101357.53
2023-04-29T17:16:50.888Z,101347.06
2023-04-29T17:19:17.864Z,101326.13
2023-04-29T17:21:44.188Z,101331.63
2023-04-29T17:24:10.595Z,101332.59
2023-04-29T17:26:37.035Z,101326.50
2023-04-29T17:29:03.984Z,101254.00
2023-04-29T17:31:44.755Z,101348.06
2023-04-29T17:34:18.529Z,101262.91
2023-04-29T17:36:46.686Z,101268.41
2023-04-29T17:39:13.845Z,101320.63
2023-04-29T17:41:40.913Z,101318.09
2023-04-29T17:44:10.143Z,101324.63
2023-04-29T17:46:37.015Z,101345.47
2023-04-29T17:49:04.636Z,101306.81
2023-04-29T17:51:33.963Z,101358.00
2023-04-29T17:54:01.088Z,101251.00
2023-04-29T17:56:27.754Z,101347.97
2023-04-29T17:58:54.200Z,101342.09
2023-04-29T18:01:20.568Z,101302.47
2023-04-29T18:03:47.235Z,101328.41
2023-04-29T18:06:13.707Z,101340.53
2023-04-29T18:08:40.512Z,101309.47
2023-04-29T18:11:07.658Z,101329.53
2023-04-29T18:13:34.064Z,101250.38
2023-04-29T18:16:00.627Z,101297.13
2023-04-29T18:18:27.066Z,101346.47
2023-04-29T18:20:53.730Z,101239.47
2023-04-29T18:23:20.232Z,101337.78
2023-04-29T18:25:46.672Z,101240.50
2023-04-29T18:28:23.502Z,101248.59
2023-04-29T18:30:52.256Z,101288.22
2023-04-29T18:33:18.833Z,101219.63
2023-04-29T18:35:45.514Z,101243.44
2023-04-29T18:38:14.185Z,101346.91
2023-04-29T18:40:41.323Z,101348.03
2023-04-29T18:43:08.757Z,101348.06
2023-04-29T18:45:35.475Z,101236.91
2023-04-29T18:48:06.673Z,101359.84
2023-04-29T18:50:33.166Z,101296.03
2023-04-29T18:52:59.768Z,101338.34
2023-04-29T18:55:26.226Z,101247.63
2023-04-29T18:57:52.878Z,101240.09
2023-04-29T19:00:19.538Z,101295.50
2023-04-29T19:02:45.869Z,101317.97
2023-04-29T19:05:13.548Z,101371.56
2023-04-29T19:07:40.722Z,101373.28
2023-04-29T19:10:07.616Z,101354.41
2023-04-29T19:12:34.185Z,101344.22
2023-04-29T19:15:00.924Z,101387.38
2023-04-29T19:17:27.740Z,101352.06
2023-04-29T19:19:54.856Z,101337.81
2023-04-29T19:22:21.750Z,101365.56
2023-04-29T19:24:48.437Z,101343.31
2023-04-29T19:27:14.931Z,101383.44
2023-04-29T19:29:41.351Z,101374.13
2023-04-29T19:32:07.989Z,101399.41
2023-04-29T19:34:35.447Z,101396.03
2023-04-29T19:37:01.905Z,101390.69
2023-04-29T19:39:28.780Z,101396.03
2023-04-29T19:41:55.933Z,101380.63
2023-04-29T19:44:22.898Z,101304.94
2023-04-29T19:46:53.574Z,101319.31
2023-04-29T19:49:20.556Z,101305.41
2023-04-29T19:51:47.327Z,101391.03
2023-04-29T19:54:14.060Z,101380.03
2023-04-29T19:56:40.472Z,101195.16
2023-04-29T19:59:06.955Z,101385.31
2023-04-29T20:01:33.557Z,101314.59
2023-04-29T20:04:00.447Z,101316.34
2023-04-29T20:06:27.234Z,101391.44
2023-04-29T20:08:53.716Z,101312.84
2023-04-29T20:11:21.096Z,101386.25
2023-04-29T20:13:48.135Z,101341.47
2023-04-29T20:16:14.666Z,101306.81
2023-04-29T20:18:41.173Z,101417.56
2023-04-29T20:21:07.627Z,101235.97
2023-04-29T20:23:34.015Z,101354.47
2023-04-29T20:26:01.261Z,101428.09
2023-04-29T20:28:27.652Z,101319.38
2023-04-29T20:30:54.067Z,101398.97
2023-04-29T20:33:20.605Z,101333.53
2023-04-29T20:35:48.207Z,101382.81
2023-04-29T20:38:15.680Z,101297.63
2023-04-29T20:40:45.196Z,101349.75
2023-04-29T20:43:12.014Z,101417.44
2023-04-29T20:45:39.001Z,101439.16
2023-04-29T20:48:05.888Z,101277.78
2023-04-29T20:50:32.284Z,101323.69
2023-04-29T20:52:58.692Z,101352.38
2023-04-29T20:55:25.090Z,101380.19
2023-04-29T20:57:51.459Z,101322.34
2023-04-29T21:00:18.203Z,101340.56
2023-04-29T21:02:44.668Z,101233.25
2023-04-29T21:05:11.180Z,101465.13
2023-04-29T21:07:37.598Z,101301.72
2023-04-29T21:10:04.879Z,101383.66
2023-04-29T21:12:31.262Z,101300.53
2023-04-29T21:14:57.620Z,101442.34
2023-04-29T21:17:23.981Z,101356.81
2023-04-29T21:19:50.404Z,101253.97
2023-04-29T21:22:16.745Z,101290.22
2023-04-29T21:24:43.172Z,101442.81
2023-04-29T21:27:11.724Z,101439.34
2023-04-29T21:29:40.809Z,101279.16
2023-04-29T21:32:08.058Z,101426.31
2023-04-29T21:34:35.396Z,101428.06
2023-04-29T21:37:01.951Z,101428.13
2023-04-29T21:39:28.462Z,101359.59
2023-04-29T21:41:55.671Z,101364.91
2023-04-29T21:44:22.014Z,101351.16
2023-04-29T21:46:51.821Z,101441.63
2023-04-29T21:49:18.568Z,101436.66
2023-04-29T21:51:44.941Z,101459.22
2023-04-29T21:54:11.313Z,101468.06
2023-04-29T21:56:37.640Z,101486.16
2023-04-29T21:59:04.107Z,101391.97
2023-04-29T22:01:45.313Z,101460.41
2023-04-29T22:04:11.826Z,101478.81
2023-04-29T22:06:38.454Z,101352.56
2023-04-29T22:09:04.940Z,101359.75
2023-04-29T22:11:31.446Z,101485.47
2023-04-29T22:13:57.849Z,101413.78
2023-04-29T22:16:24.419Z,101387.06
2023-04-29T22:18:51.333Z,101416.44
2023-04-29T22:21:18.883Z,101322.78
2023-04-29T22:23:45.661Z,101352.28
2023-04-29T22:26:12.121Z,101440.00
2023-04-29T22:28:40.854Z,101419.38
2023-04-29T22:31:07.312Z,101504.28
2023-04-29T22:33:34.932Z,101293.03
2023-04-29T22:36:01.742Z,101501.81
2023-04-29T22:38:29.292Z,101456.09
2023-04-29T22:40:55.770Z,101350.34
2023-04-29T22:43:22.441Z,101466.97
2023-04-29T22:45:55.369Z,101519.91
2023-04-29T22:48:24.169Z,101525.91
2023-04-29T22:50:58.522Z,101384.97
2023-04-29T22:53:25.429Z,101514.19
2023-04-29T22:55:56.800Z,101512.53
2023-04-29T22:58:27.169Z,101431.19
2023-04-29T23:00:58.579Z,101387.94
2023-04-29T23:03:25.960Z,101514.34
2023-04-29T23:05:57.640Z,101487.69
2023-04-29T23:08:24.012Z,101520.78
2023-04-29T23:10:50.423Z,101411.50
2023-04-29T23:13:17.679Z,101447.13
2023-04-29T23:15:44.787Z,101503.72
2023-04-29T23:18:11.432Z,101536.97
2023-04-29T23:20:38.145Z,101523.03
2023-04-29T23:23:04.750Z,101540.44
2023-04-29T23:25:31.138Z,101457.31
2023-04-29T23:27:57.620Z,101521.59
2023-04-29T23:30:24.433Z,101386.38
2023-04-29T23:32:50.894Z,101404.66
2023-04-29T23:35:17.507Z,101440.28
2023-04-29T23:37:43.934Z,101402.19
2023-04-29T23:40:10.761Z,101364.09
2023-04-29T23:42:37.149Z,101379.81
2023-04-29T23:45:03.911Z,101410.41
2023-04-29T23:47:30.322Z,101550.16
2023-04-29T23:49:56.948Z,101535.44
2023-04-29T23:52:23.837Z,101461.72
2023-04-29T23:54:50.291Z,101510.34
2023-04-29T23:57:16.769Z,101533.75
2023-04-29T23:59:43.658Z,101528.59
